Time,TemperatureF,DewpointF,PressureIn,WindDirection,WindDirectionDegrees,WindSpeedMPH,WindSpeedGustMPH,Humidity,HourlyPrecipIn,Conditions,Clouds,dailyrainin,SolarRadiationWatts/m^2,SoftwareType,DateUTC
2013-10-02 00:00:00,67.5,65.1,29.87,East,86,0.0,0.0,92,0.00,,CLR,0.00,0.00,VWS V14.01,2013-10-02 05:00:00,
2013-10-02 00:04:00,67.6,65.2,29.86,East,86,0.0,0.0,92,0.00,,CLR,0.00,0.00,VWS V14.01,2013-10-02 05:04:00,
2013-10-02 00:05:00,67.5,65.4,29.87,East,86,0.0,0.0,93,0.00,,CLR,0.00,0.00,VWS V14.01,2013-10-02 05:05:00,
2013-10-02 00:09:00,67.5,65.1,29.87,East,86,0.0,0.0,92,0.00,,CLR,0.00,0.00,VWS V14.01,2013-10-02 05:09:00,
2013-10-02 00:10:00,67.4,65.3,29.87,East,86,0.0,0.0,93,0.00,,CLR,0.00,0.00,VWS V14.01,2013-10-02 05:10:00,
2013-10-02 00:14:00,67.4,65.3,29.87,East,86,0.0,0.0,93,0.00,,CLR,0.00,0.00,VWS V14.01,2013-10-02 05:14:00,
2013-10-02 00:15:00,67.4,65.3,29.86,East,86,0.0,1.0,93,0.00,,CLR,0.00,0.00,VWS V14.01,2013-10-02 05:15:00,
2013-10-02 00:19:00,67.4,65.3,29.87,East,86,0.0,0.0,93,0.00,,CLR,0.00,0.00,VWS V14.01,2013-10-02 05:19:00,
2013-10-02 00:20:00,67.4,65.3,29.86,East,86,0.0,0.0,93,0.00,,CLR,0.00,0.00,VWS V14.01,2013-10-02 05:20:00,
2013-10-02 00:24:00,67.5,65.4,29.86,East,86,0.0,0.0,93,0.00,,CLR,0.00,0.00,VWS V14.01,2013-10-02 05:24:00,
2013-10-02 00:25:00,67.4,65.3,29.86,East,86,0.0,0.0,93,0.00,,CLR,0.00,0.00,VWS V14.01,2013-10-02 05:25:00,
2013-10-02 00:29:00,67.4,65.3,29.86,East,86,0.0,0.0,93,0.00,,CLR,0.00,0.00,VWS V14.01,2013-10-02 05:29:00,
2013-10-02 00:30:00,67.3,65.2,29.86,East,86,0.0,0.0,93,0.00,,CLR,0.00,0.00,VWS V14.01,2013-10-02 05:30:00,
2013-10-02 00:34:00,67.3,65.2,29.86,East,86,0.0,0.0,93,0.00,,CLR,0.00,0.00,VWS V14.01,2013-10-02 05:34:00,
2013-10-02 00:35:00,67.2,65.1,29.86,East,86,0.0,1.0,93,0.00,,CLR,0.00,0.00,VWS V14.01,2013-10-02 05:35:00,
2013-10-02 00:39:00,67.3,65.2,29.86,East,86,0.0,1.0,93,0.00,,CLR,0.00,0.00,VWS V14.01,2013-10-02 05:39:00,
2013-10-02 00:40:00,67.1,64.7,29.86,East,86,0.0,0.0,92,0.00,,CLR,0.00,0.00,VWS V14.01,2013-10-02 05:40:00,
2013-10-02 00:45:00,67.2,65.1,29.86,East,86,0.0,0.0,93,0.00,,CLR,0.00,0.00,VWS V14.01,2013-10-02 05:45:00,
2013-10-02 00:50:00,67.0,64.6,29.86,East,86,0.0,0.0,92,0.00,,CLR,0.00,0.00,VWS V14.01,2013-10-02 05:50:00,
2013-10-02 00:55:00,66.9,64.5,29.86,East,86,0.0,0.0,92,0.00,,CLR,0.00,0.00,VWS V14.01,2013-10-02 05:55:00,
2013-10-02 01:00:00,66.7,64.6,29.86,East,86,0.0,0.0,93,0.00,,CLR,0.00,0.00,VWS V14.01,2013-10-02 06:00:00,
2013-10-02 01:05:00,66.6,64.8,29.86,East,86,0.0,0.0,94,0.00,,CLR,0.00,0.00,VWS V14.01,2013-10-02 06:05:00,
2013-10-02 01:10:00,66.6,64.8,29.86,East,86,0.0,0.0,94,0.00,,CLR,0.00,0.00,VWS V14.01,2013-10-02 06:10:00,
2013-10-02 01:15:00,66.6,65.1,29.86,East,86,0.0,0.0,95,0.00,,CLR,0.00,0.00,VWS V14.01,2013-10-02 06:15:00,
2013-10-02 01:20:00,66.6,65.1,29.86,East,86,0.0,0.0,95,0.00,,CLR,0.00,0.00,VWS V14.01,2013-10-02 06:20:00,
2013-10-02 01:25:00,66.6,65.1,29.86,East,86,0.0,0.0,95,0.00,,CLR,0.00,0.00,VWS V14.01,2013-10-02 06:25:00,
2013-10-02 01:30:00,66.5,65.0,29.86,East,86,0.0,0.0,95,0.00,,CLR,0.00,0.00,VWS V14.01,2013-10-02 06:30:00,
2013-10-02 01:35:00,66.5,65.0,29.86,East,86,0.0,1.0,95,0.00,,CLR,0.00,0.00,VWS V14.01,2013-10-02 06:35:00,
2013-10-02 01:40:00,66.5,65.0,29.86,East,86,0.0,0.0,95,0.00,,CLR,0.00,0.00,VWS V14.01,2013-10-02 06:40:00,
2013-10-02 01:45:00,66.5,65.0,29.86,East,86,0.0,0.0,95,0.00,,CLR,0.00,0.00,VWS V14.01,2013-10-02 06:45:00,
2013-10-02 01:50:00,66.4,64.9,29.86,East,86,0.0,0.0,95,0.00,,CLR,0.00,0.00,VWS V14.01,2013-10-02 06:50:00,
2013-10-02 01:55:00,66.3,64.8,29.87,East,86,0.0,1.0,95,0.00,,CLR,0.00,0.00,VWS V14.01,2013-10-02 06:55:00,
2013-10-02 02:00:00,66.4,65.2,29.87,East,86,0.0,1.0,96,0.00,,CLR,0.00,0.00,VWS V14.01,2013-10-02 07:00:00,
2013-10-02 02:05:00,66.4,65.2,29.87,East,86,0.0,0.0,96,0.00,,CLR,0.00,0.00,VWS V14.01,2013-10-02 07:05:00,
2013-10-02 02:10:00,66.4,65.2,29.87,East,86,0.0,0.0,96,0.00,,CLR,0.00,0.00,VWS V14.01,2013-10-02 07:10:00,
2013-10-02 02:15:00,66.4,65.2,29.87,East,86,0.0,0.0,96,0.00,,CLR,0.00,0.00,VWS V14.01,2013-10-02 07:15:00,
2013-10-02 02:20:00,66.3,64.8,29.87,East,86,0.0,0.0,95,0.00,,CLR,0.00,0.00,VWS V14.01,2013-10-02 07:20:00,
2013-10-02 02:25:00,66.1,64.3,29.87,East,86,0.0,0.0,94,0.00,,CLR,0.00,0.00,VWS V14.01,2013-10-02 07:25:00,
2013-10-02 02:30:00,65.8,64.0,29.87,East,86,0.0,0.0,94,0.00,,CLR,0.00,0.00,VWS V14.01,2013-10-02 07:30:00,
2013-10-02 02:35:00,65.6,63.5,29.87,East,86,0.0,0.0,93,0.00,,CLR,0.00,0.00,VWS V14.01,2013-10-02 07:35:00,
2013-10-02 02:40:00,65.4,63.6,29.87,East,86,0.0,0.0,94,0.00,,CLR,0.00,0.00,VWS V14.01,2013-10-02 07:40:00,
2013-10-02 02:45:00,65.2,63.4,29.87,East,86,0.0,0.0,94,0.00,,CLR,0.00,0.00,VWS V14.01,2013-10-02 07:45:00,
2013-10-02 02:50:00,65.1,63.3,29.87,East,86,0.0,0.0,94,0.00,,CLR,0.00,0.00,VWS V14.01,2013-10-02 07:50:00,
2013-10-02 02:55:00,65.0,63.2,29.87,East,86,0.0,0.0,94,0.00,,CLR,0.00,0.00,VWS V14.01,2013-10-02 07:55:00,
2013-10-02 03:00:00,64.6,63.1,29.87,East,86,0.0,0.0,95,0.00,,CLR,0.00,0.00,VWS V14.01,2013-10-02 08:00:00,
2013-10-02 03:01:00,64.8,63.0,29.87,East,86,0.0,0.0,94,0.00,,CLR,0.00,0.00,VWS V14.01,2013-10-02 08:01:00,
2013-10-02 03:05:00,64.5,63.0,29.87,East,86,0.0,0.0,95,0.00,,CLR,0.00,0.00,VWS V14.01,2013-10-02 08:05:00,
2013-10-02 03:06:00,64.7,62.9,29.87,East,86,0.0,0.0,94,0.00,,CLR,0.00,0.00,VWS V14.01,2013-10-02 08:06:00,
2013-10-02 03:10:00,64.5,63.0,29.87,East,86,0.0,0.0,95,0.00,,CLR,0.00,0.00,VWS V14.01,2013-10-02 08:10:00,
2013-10-02 03:11:00,64.6,63.1,29.87,East,86,0.0,0.0,95,0.00,,CLR,0.00,0.00,VWS V14.01,2013-10-02 08:11:00,
2013-10-02 03:15:00,64.4,62.9,29.87,East,86,0.0,0.0,95,0.00,,CLR,0.00,0.00,VWS V14.01,2013-10-02 08:15:00,
2013-10-02 03:16:00,64.5,63.0,29.87,East,86,0.0,0.0,95,0.00,,CLR,0.00,0.00,VWS V14.01,2013-10-02 08:16:00,
2013-10-02 03:20:00,64.4,63.2,29.87,East,86,0.0,0.0,96,0.00,,CLR,0.00,0.00,VWS V14.01,2013-10-02 08:20:00,
2013-10-02 03:21:00,64.4,62.9,29.87,East,86,0.0,0.0,95,0.00,,CLR,0.00,0.00,VWS V14.01,2013-10-02 08:21:00,
2013-10-02 03:25:00,64.3,63.1,29.87,East,86,0.0,0.0,96,0.00,,CLR,0.00,0.00,VWS V14.01,2013-10-02 08:25:00,
2013-10-02 03:26:00,64.4,62.9,29.87,East,86,0.0,0.0,95,0.00,,CLR,0.00,0.00,VWS V14.01,2013-10-02 08:26:00,
2013-10-02 03:30:00,64.2,63.0,29.87,East,86,0.0,0.0,96,0.00,,CLR,0.00,0.00,VWS V14.01,2013-10-02 08:30:00,
2013-10-02 03:31:00,64.4,63.2,29.87,East,86,0.0,0.0,96,0.00,,CLR,0.00,0.00,VWS V14.01,2013-10-02 08:31:00,
2013-10-02 03:35:00,64.1,62.6,29.87,East,86,0.0,0.0,95,0.00,,CLR,0.00,0.00,VWS V14.01,2013-10-02 08:35:00,
2013-10-02 03:36:00,64.3,63.1,29.87,East,86,0.0,0.0,96,0.00,,CLR,0.00,0.00,VWS V14.01,2013-10-02 08:36:00,
2013-10-02 03:40:00,63.9,62.4,29.87,East,86,0.0,0.0,95,0.00,,CLR,0.00,0.00,VWS V14.01,2013-10-02 08:40:00,
2013-10-02 03:41:00,64.1,62.6,29.87,East,86,0.0,0.0,95,0.00,,CLR,0.00,0.00,VWS V14.01,2013-10-02 08:41:00,
2013-10-02 03:45:00,63.8,62.3,29.87,East,86,0.0,0.0,95,0.00,,CLR,0.00,0.00,VWS V14.01,2013-10-02 08:45:00,
2013-10-02 03:46:00,64.0,62.5,29.87,East,86,0.0,0.0,95,0.00,,CLR,0.00,0.00,VWS V14.01,2013-10-02 08:46:00,
2013-10-02 03:50:00,63.9,62.7,29.87,East,86,0.0,0.0,96,0.00,,CLR,0.00,0.00,VWS V14.01,2013-10-02 08:50:00,
2013-10-02 03:51:00,63.8,62.3,29.87,East,86,0.0,0.0,95,0.00,,CLR,0.00,0.00,VWS V14.01,2013-10-02 08:51:00,
2013-10-02 03:55:00,64.1,63.2,29.87,East,86,0.0,1.0,97,0.00,,CLR,0.00,0.00,VWS V14.01,2013-10-02 08:55:00,
2013-10-02 03:56:00,63.8,62.6,29.87,East,86,0.0,0.0,96,0.00,,CLR,0.00,0.00,VWS V14.01,2013-10-02 08:56:00,
2013-10-02 04:00:00,64.3,63.4,29.87,East,86,0.0,1.0,97,0.00,,CLR,0.00,0.00,VWS V14.01,2013-10-02 09:00:00,
2013-10-02 04:01:00,64.0,63.1,29.87,East,86,0.0,0.0,97,0.00,,CLR,0.00,0.00,VWS V14.01,2013-10-02 09:01:00,
2013-10-02 04:05:00,64.4,63.5,29.87,East,86,0.0,0.0,97,0.00,,CLR,0.00,0.00,VWS V14.01,2013-10-02 09:05:00,
2013-10-02 04:06:00,64.3,63.4,29.87,East,86,0.0,0.0,97,0.00,,CLR,0.00,0.00,VWS V14.01,2013-10-02 09:06:00,
2013-10-02 04:10:00,64.4,63.5,29.87,East,86,0.0,1.0,97,0.00,,CLR,0.00,0.00,VWS V14.01,2013-10-02 09:10:00,
2013-10-02 04:11:00,64.4,63.5,29.87,East,86,0.0,0.0,97,0.00,,CLR,0.00,0.00,VWS V14.01,2013-10-02 09:11:00,
2013-10-02 04:15:00,64.5,63.6,29.88,East,88,1.0,2.0,97,0.00,,CLR,0.00,0.00,VWS V14.01,2013-10-02 09:15:00,
2013-10-02 04:16:00,64.4,63.5,29.87,East,86,0.0,0.0,97,0.00,,CLR,0.00,0.00,VWS V14.01,2013-10-02 09:16:00,
2013-10-02 04:20:00,64.4,63.5,29.88,East,88,0.0,1.0,97,0.00,,CLR,0.00,0.00,VWS V14.01,2013-10-02 09:20:00,
2013-10-02 04:21:00,64.5,63.6,29.87,East,88,0.0,2.0,97,0.00,,CLR,0.00,0.00,VWS V14.01,2013-10-02 09:21:00,
2013-10-02 04:25:00,64.2,63.3,29.88,East,88,0.0,0.0,97,0.00,,CLR,0.00,0.00,VWS V14.01,2013-10-02 09:25:00,
2013-10-02 04:26:00,64.4,63.5,29.88,East,88,0.0,1.0,97,0.00,,CLR,0.00,0.00,VWS V14.01,2013-10-02 09:26:00,
2013-10-02 04:30:00,64.0,63.1,29.88,East,88,0.0,1.0,97,0.00,,CLR,0.00,0.00,VWS V14.01,2013-10-02 09:30:00,
2013-10-02 04:31:00,64.3,63.4,29.88,East,88,0.0,0.0,97,0.00,,CLR,0.00,0.00,VWS V14.01,2013-10-02 09:31:00,
2013-10-02 04:35:00,64.3,63.7,29.88,East,88,0.0,2.0,98,0.00,,CLR,0.00,0.00,VWS V14.01,2013-10-02 09:35:00,
2013-10-02 04:36:00,64.1,63.2,29.88,East,88,0.0,0.0,97,0.00,,CLR,0.00,0.00,VWS V14.01,2013-10-02 09:36:00,
2013-10-02 04:40:00,64.6,64.0,29.88,East,94,0.0,3.0,98,0.00,,CLR,0.00,0.00,VWS V14.01,2013-10-02 09:40:00,
2013-10-02 04:41:00,64.1,63.2,29.88,East,88,0.0,2.0,97,0.00,,CLR,0.00,0.00,VWS V14.01,2013-10-02 09:41:00,
2013-10-02 04:45:00,64.6,64.0,29.88,ENE,76,0.0,1.0,98,0.00,,CLR,0.00,0.00,VWS V14.01,2013-10-02 09:45:00,
2013-10-02 04:46:00,64.5,63.9,29.88,East,94,0.0,3.0,98,0.00,,CLR,0.00,0.00,VWS V14.01,2013-10-02 09:46:00,
2013-10-02 04:50:00,64.7,64.1,29.88,ESE,116,0.0,2.0,98,0.00,,CLR,0.00,0.00,VWS V14.01,2013-10-02 09:50:00,
2013-10-02 04:51:00,64.6,64.0,29.88,ENE,76,0.0,1.0,98,0.00,,CLR,0.00,0.00,VWS V14.01,2013-10-02 09:51:00,
2013-10-02 04:55:00,64.7,64.1,29.88,East,97,0.0,2.0,98,0.00,,CLR,0.00,0.00,VWS V14.01,2013-10-02 09:55:00,
2013-10-02 04:56:00,64.7,64.1,29.88,ESE,116,0.0,2.0,98,0.00,,CLR,0.00,0.00,VWS V14.01,2013-10-02 09:56:00,
2013-10-02 05:00:00,64.7,64.1,29.88,East,97,0.0,0.0,98,0.00,,CLR,0.00,0.00,VWS V14.01,2013-10-02 10:00:00,
2013-10-02 05:01:00,64.7,64.1,29.88,East,97,0.0,2.0,98,0.00,,FEW060,0.00,0.00,VWS V14.01,2013-10-02 10:01:00,
2013-10-02 05:05:00,64.9,64.3,29.88,ESE,111,2.0,2.0,98,0.00,,CLR,0.00,0.00,VWS V14.01,2013-10-02 10:05:00,
2013-10-02 05:07:00,64.7,64.1,29.88,East,97,0.0,0.0,98,0.00,,FEW060,0.00,0.00,VWS V14.01,2013-10-02 10:07:00,
2013-10-02 05:10:00,65.2,64.6,29.88,East,89,0.0,3.0,98,0.00,,CLR,0.00,0.00,VWS V14.01,2013-10-02 10:10:00,
2013-10-02 05:12:00,64.7,64.1,29.88,ESE,111,0.0,2.0,98,0.00,,FEW060,0.00,0.00,VWS V14.01,2013-10-02 10:12:00,
2013-10-02 05:15:00,65.3,64.7,29.88,East,98,0.0,1.0,98,0.00,,CLR,0.00,0.00,VWS V14.01,2013-10-02 10:15:00,
2013-10-02 05:17:00,65.1,64.5,29.88,East,88,0.0,3.0,98,0.00,,FEW060,0.00,0.00,VWS V14.01,2013-10-02 10:17:00,
2013-10-02 05:20:00,65.5,65.2,29.88,ESE,117,1.0,5.0,99,0.00,,CLR,0.00,0.00,VWS V14.01,2013-10-02 10:20:00,
2013-10-02 05:22:00,65.3,64.7,29.88,East,98,0.0,1.0,98,0.00,,FEW060,0.00,0.00,VWS V14.01,2013-10-02 10:22:00,
2013-10-02 05:25:00,65.6,65.3,29.88,East,101,0.0,4.0,99,0.00,,CLR,0.00,0.00,VWS V14.01,2013-10-02 10:25:00,
2013-10-02 05:27:00,65.4,65.1,29.88,East,97,2.0,5.0,99,0.00,,FEW060,0.00,0.00,VWS V14.01,2013-10-02 10:27:00,
2013-10-02 05:30:00,65.7,65.1,29.88,East,90,0.0,4.0,98,0.00,,CLR,0.00,0.00,VWS V14.01,2013-10-02 10:30:00,
2013-10-02 05:32:00,65.5,65.2,29.88,ESE,103,0.0,4.0,99,0.00,,FEW060,0.00,0.00,VWS V14.01,2013-10-02 10:32:00,
2013-10-02 05:35:00,65.7,65.1,29.88,East,92,2.0,2.0,98,0.00,,CLR,0.00,0.00,VWS V14.01,2013-10-02 10:35:00,
2013-10-02 05:37:00,65.6,65.0,29.88,East,90,0.0,4.0,98,0.00,,FEW060,0.00,0.00,VWS V14.01,2013-10-02 10:37:00,
2013-10-02 05:40:00,65.7,65.1,29.88,ESE,110,0.0,3.0,98,0.00,,CLR,0.00,0.00,VWS V14.01,2013-10-02 10:40:00,
2013-10-02 05:42:00,65.7,65.1,29.88,East,91,0.0,2.0,98,0.00,,FEW060,0.00,0.00,VWS V14.01,2013-10-02 10:42:00,
2013-10-02 05:45:00,65.7,65.1,29.88,ESE,111,0.0,1.0,98,0.00,,CLR,0.00,0.00,VWS V14.01,2013-10-02 10:45:00,
2013-10-02 05:47:00,65.7,65.1,29.88,ESE,117,0.0,3.0,98,0.00,,FEW060,0.00,0.00,VWS V14.01,2013-10-02 10:47:00,
2013-10-02 05:50:00,65.8,65.2,29.88,ESE,109,0.0,2.0,98,0.00,,CLR,0.00,0.00,VWS V14.01,2013-10-02 10:50:00,
2013-10-02 05:52:00,65.7,65.1,29.88,ESE,110,0.0,1.0,98,0.00,,FEW060,0.00,0.00,VWS V14.01,2013-10-02 10:52:00,
2013-10-02 05:55:00,65.8,65.2,29.88,ESE,110,0.0,2.0,98,0.00,,CLR,0.00,0.00,VWS V14.01,2013-10-02 10:55:00,
2013-10-02 05:57:00,65.8,65.2,29.88,ESE,109,0.0,2.0,98,0.00,,FEW060,0.00,0.00,VWS V14.01,2013-10-02 10:57:00,
2013-10-02 06:00:00,65.8,65.2,29.89,ESE,110,0.0,0.0,98,0.00,,CLR,0.00,0.00,VWS V14.01,2013-10-02 11:00:00,
2013-10-02 06:02:00,65.8,65.2,29.88,ESE,110,0.0,2.0,98,0.00,,BKN065,0.00,0.00,VWS V14.01,2013-10-02 11:02:00,
2013-10-02 06:05:00,65.6,65.0,29.89,ESE,110,0.0,0.0,98,0.00,,CLR,0.00,0.00,VWS V14.01,2013-10-02 11:05:00,
2013-10-02 06:07:00,65.8,65.2,29.88,ESE,110,0.0,0.0,98,0.00,,BKN065,0.00,0.00,VWS V14.01,2013-10-02 11:07:00,
2013-10-02 06:10:00,65.4,64.8,29.89,ESE,110,0.0,0.0,98,0.00,,CLR,0.00,0.00,VWS V14.01,2013-10-02 11:10:00,
2013-10-02 06:12:00,65.7,65.1,29.89,ESE,110,0.0,0.0,98,0.00,,BKN065,0.00,0.00,VWS V14.01,2013-10-02 11:12:00,
2013-10-02 06:15:00,65.1,64.2,29.89,ESE,110,0.0,0.0,97,0.00,,CLR,0.00,0.00,VWS V14.01,2013-10-02 11:15:00,
2013-10-02 06:17:00,65.4,64.8,29.89,ESE,110,0.0,0.0,98,0.00,,BKN065,0.00,0.00,VWS V14.01,2013-10-02 11:17:00,
2013-10-02 06:20:00,65.1,64.5,29.89,ESE,110,0.0,1.0,98,0.00,,CLR,0.00,0.00,VWS V14.01,2013-10-02 11:20:00,
2013-10-02 06:22:00,65.2,64.3,29.89,ESE,110,0.0,0.0,97,0.00,,BKN065,0.00,0.00,VWS V14.01,2013-10-02 11:22:00,
2013-10-02 06:25:00,65.4,64.8,29.89,ESE,110,2.0,2.0,98,0.00,,CLR,0.00,0.00,VWS V14.01,2013-10-02 11:25:00,
2013-10-02 06:28:00,65.1,64.5,29.89,ESE,110,0.0,1.0,98,0.00,,BKN065,0.00,0.00,VWS V14.01,2013-10-02 11:28:00,
2013-10-02 06:30:00,65.6,65.3,29.90,ENE,65,0.0,2.0,99,0.00,,CLR,0.00,0.00,VWS V14.01,2013-10-02 11:30:00,
2013-10-02 06:33:00,65.3,64.7,29.89,ESE,110,0.0,1.0,98,0.00,,BKN065,0.00,0.00,VWS V14.01,2013-10-02 11:33:00,
2013-10-02 06:35:00,65.7,65.4,29.90,ENE,73,0.0,1.0,99,0.00,,CLR,0.00,0.00,VWS V14.01,2013-10-02 11:35:00,
2013-10-02 06:38:00,65.5,65.2,29.90,ENE,65,1.0,2.0,99,0.00,,BKN065,0.00,0.00,VWS V14.01,2013-10-02 11:38:00,
2013-10-02 06:40:00,65.9,65.6,29.90,ESE,114,0.0,4.0,99,0.00,,CLR,0.00,0.00,VWS V14.01,2013-10-02 11:40:00,
2013-10-02 06:43:00,65.7,65.4,29.90,ENE,73,0.0,1.0,99,0.00,,BKN065,0.00,0.00,VWS V14.01,2013-10-02 11:43:00,
2013-10-02 06:45:00,66.0,65.7,29.90,ESE,121,0.0,1.0,99,0.00,,CLR,0.00,0.00,VWS V14.01,2013-10-02 11:45:00,
2013-10-02 06:48:00,65.9,65.6,29.90,ESE,114,0.0,4.0,99,0.00,,BKN065,0.00,0.00,VWS V14.01,2013-10-02 11:48:00,
2013-10-02 06:50:00,65.9,65.6,29.90,ESE,121,0.0,0.0,99,0.00,,CLR,0.00,0.00,VWS V14.01,2013-10-02 11:50:00,
2013-10-02 06:53:00,65.9,65.6,29.90,ESE,121,1.0,1.0,99,0.00,,BKN065,0.00,0.00,VWS V14.01,2013-10-02 11:53:00,
2013-10-02 06:55:00,65.7,65.1,29.90,ESE,121,0.0,0.0,98,0.00,,CLR,0.00,0.00,VWS V14.01,2013-10-02 11:55:00,
2013-10-02 06:58:00,66.0,65.7,29.90,ESE,121,0.0,0.0,99,0.00,,BKN065,0.00,0.00,VWS V14.01,2013-10-02 11:58:00,
2013-10-02 07:00:00,65.4,64.8,29.90,ESE,121,0.0,0.0,98,0.00,,CLR,0.00,0.00,VWS V14.01,2013-10-02 12:00:00,
2013-10-02 07:03:00,65.7,65.1,29.90,ESE,121,0.0,0.0,98,0.00,,SCT080,0.00,0.00,VWS V14.01,2013-10-02 12:03:00,
2013-10-02 07:05:00,65.2,64.6,29.90,ESE,121,0.0,1.0,98,0.00,,CLR,0.00,0.00,VWS V14.01,2013-10-02 12:05:00,
2013-10-02 07:08:00,65.5,64.9,29.90,ESE,121,0.0,0.0,98,0.00,,SCT080,0.00,0.00,VWS V14.01,2013-10-02 12:08:00,
2013-10-02 07:10:00,65.1,64.5,29.90,ESE,121,0.0,0.0,98,0.00,,CLR,0.00,5.00,VWS V14.01,2013-10-02 12:10:00,
2013-10-02 07:13:00,65.2,64.6,29.90,ESE,121,0.0,1.0,98,0.00,,SCT080,0.00,0.00,VWS V14.01,2013-10-02 12:13:00,
2013-10-02 07:15:00,65.2,64.6,29.90,East,101,0.0,2.0,98,0.00,,CLR,0.00,9.00,VWS V14.01,2013-10-02 12:15:00,
2013-10-02 07:18:00,65.1,64.5,29.90,ESE,121,0.0,0.0,98,0.00,,SCT080,0.00,5.00,VWS V14.01,2013-10-02 12:18:00,
2013-10-02 07:20:00,65.2,64.6,29.90,ESE,102,0.0,2.0,98,0.00,,CLR,0.00,12.00,VWS V14.01,2013-10-02 12:20:00,
2013-10-02 07:23:00,65.2,64.6,29.90,East,101,0.0,2.0,98,0.00,,SCT080,0.00,9.00,VWS V14.01,2013-10-02 12:23:00,
2013-10-02 07:25:00,65.3,64.7,29.90,ESE,102,0.0,1.0,98,0.00,,CLR,0.00,12.00,VWS V14.01,2013-10-02 12:25:00,
2013-10-02 07:28:00,65.2,64.6,29.90,ESE,102,0.0,2.0,98,0.00,,SCT080,0.00,12.00,VWS V14.01,2013-10-02 12:28:00,
2013-10-02 07:30:00,65.5,65.2,29.90,ESE,105,1.0,2.0,99,0.00,,CLR,0.00,16.00,VWS V14.01,2013-10-02 12:30:00,
2013-10-02 07:33:00,65.3,64.7,29.90,ESE,102,0.0,1.0,98,0.00,,SCT080,0.00,12.00,VWS V14.01,2013-10-02 12:33:00,
2013-10-02 07:35:00,65.6,65.3,29.90,ESE,105,0.0,1.0,99,0.00,,CLR,0.00,19.00,VWS V14.01,2013-10-02 12:35:00,
2013-10-02 07:38:00,65.5,65.2,29.90,ESE,105,0.0,2.0,99,0.00,,SCT080,0.00,16.00,VWS V14.01,2013-10-02 12:38:00,
2013-10-02 07:40:00,65.7,65.4,29.90,ESE,105,1.0,1.0,99,0.00,,CLR,0.00,26.00,VWS V14.01,2013-10-02 12:40:00,
2013-10-02 07:43:00,65.6,65.3,29.90,ESE,105,0.0,1.0,99,0.00,,SCT080,0.00,19.00,VWS V14.01,2013-10-02 12:43:00,
2013-10-02 07:45:00,65.8,65.5,29.90,ESE,103,0.0,2.0,99,0.00,,CLR,0.00,35.00,VWS V14.01,2013-10-02 12:45:00,
2013-10-02 07:48:00,65.7,65.4,29.90,ESE,105,1.0,1.0,99,0.00,,SCT080,0.00,26.00,VWS V14.01,2013-10-02 12:48:00,
2013-10-02 07:50:00,66.0,65.7,29.90,ESE,104,0.0,1.0,99,0.00,,CLR,0.00,44.00,VWS V14.01,2013-10-02 12:50:00,
2013-10-02 07:53:00,65.8,65.5,29.90,ESE,103,0.0,2.0,99,0.00,,SCT080,0.00,35.00,VWS V14.01,2013-10-02 12:53:00,
2013-10-02 07:55:00,66.1,65.8,29.90,ESE,104,0.0,1.0,99,0.00,,CLR,0.00,51.00,VWS V14.01,2013-10-02 12:55:00,
2013-10-02 07:58:00,66.0,65.7,29.90,ESE,104,0.0,1.0,99,0.00,,SCT080,0.00,44.00,VWS V14.01,2013-10-02 12:58:00,
2013-10-02 08:00:00,66.3,66.0,29.90,East,101,1.0,4.0,99,0.00,,CLR,0.00,56.00,VWS V14.01,2013-10-02 13:00:00,
2013-10-02 08:03:00,66.1,65.8,29.90,ESE,104,0.0,1.0,99,0.00,,SCT090,0.00,51.00,VWS V14.01,2013-10-02 13:03:00,
2013-10-02 08:05:00,66.5,66.2,29.90,East,96,0.0,2.0,99,0.00,,CLR,0.00,42.00,VWS V14.01,2013-10-02 13:05:00,
2013-10-02 08:08:00,66.3,66.0,29.90,East,101,1.0,4.0,99,0.00,,SCT090,0.00,56.00,VWS V14.01,2013-10-02 13:08:00,
2013-10-02 08:10:00,66.6,66.3,29.90,ESE,113,0.0,2.0,99,0.00,,CLR,0.00,40.00,VWS V14.01,2013-10-02 13:10:00,
2013-10-02 08:13:00,66.5,66.2,29.90,East,96,0.0,2.0,99,0.00,,SCT090,0.00,42.00,VWS V14.01,2013-10-02 13:13:00,
2013-10-02 08:15:00,66.8,66.5,29.90,ESE,113,0.0,1.0,99,0.00,,CLR,0.00,54.00,VWS V14.01,2013-10-02 13:15:00,
2013-10-02 08:18:00,66.6,66.3,29.90,ESE,113,0.0,2.0,99,0.00,,SCT090,0.00,40.00,VWS V14.01,2013-10-02 13:18:00,
2013-10-02 08:20:00,67.0,66.7,29.90,ESE,111,1.0,2.0,99,0.00,,CLR,0.00,79.00,VWS V14.01,2013-10-02 13:20:00,
2013-10-02 08:23:00,66.8,66.5,29.90,ESE,113,0.0,0.0,99,0.00,,SCT090,0.00,54.00,VWS V14.01,2013-10-02 13:23:00,
2013-10-02 08:25:00,67.4,67.1,29.90,ESE,110,0.0,2.0,99,0.00,,CLR,0.00,127.00,VWS V14.01,2013-10-02 13:25:00,
2013-10-02 08:28:00,67.0,66.7,29.90,ESE,111,1.0,1.0,99,0.00,,SCT090,0.00,79.00,VWS V14.01,2013-10-02 13:28:00,
2013-10-02 08:30:00,67.6,67.3,29.90,East,94,2.0,2.0,99,0.00,,CLR,0.00,213.00,VWS V14.01,2013-10-02 13:30:00,
2013-10-02 08:34:00,67.4,67.1,29.90,ESE,110,0.0,0.0,99,0.00,,SCT090,0.00,127.00,VWS V14.01,2013-10-02 13:34:00,
2013-10-02 08:35:00,68.0,67.4,29.90,ESE,112,0.0,2.0,98,0.00,,CLR,0.00,192.00,VWS V14.01,2013-10-02 13:35:00,
2013-10-02 08:39:00,67.7,67.4,29.90,East,94,0.0,2.0,99,0.00,,SCT090,0.00,213.00,VWS V14.01,2013-10-02 13:39:00,
2013-10-02 08:40:00,68.3,67.7,29.90,SSE,159,0.0,4.0,98,0.00,,CLR,0.00,84.00,VWS V14.01,2013-10-02 13:40:00,
2013-10-02 08:44:00,68.0,67.4,29.90,ESE,112,0.0,0.0,98,0.00,,SCT090,0.00,192.00,VWS V14.01,2013-10-02 13:44:00,
2013-10-02 08:45:00,68.5,67.6,29.91,ESE,107,0.0,3.0,97,0.00,,CLR,0.00,83.00,VWS V14.01,2013-10-02 13:45:00,
2013-10-02 08:49:00,68.3,67.7,29.90,SSE,159,0.0,0.0,98,0.00,,SCT090,0.00,84.00,VWS V14.01,2013-10-02 13:49:00,
2013-10-02 08:50:00,68.7,67.8,29.91,ESE,109,0.0,3.0,97,0.00,,CLR,0.00,320.00,VWS V14.01,2013-10-02 13:50:00,
2013-10-02 08:54:00,68.5,67.6,29.91,ESE,107,0.0,0.0,97,0.00,,SCT090,0.00,83.00,VWS V14.01,2013-10-02 13:54:00,
2013-10-02 08:55:00,69.2,68.3,29.91,ESE,119,0.0,3.0,97,0.00,,CLR,0.00,330.00,VWS V14.01,2013-10-02 13:55:00,
2013-10-02 08:59:00,68.7,67.8,29.91,ESE,109,0.0,0.0,97,0.00,,SCT090,0.00,246.00,VWS V14.01,2013-10-02 13:59:00,
2013-10-02 09:00:00,69.5,68.3,29.91,SE,126,0.0,1.0,96,0.00,,CLR,0.00,327.00,VWS V14.01,2013-10-02 14:00:00,
2013-10-02 09:04:00,69.2,68.3,29.91,ESE,119,0.0,0.0,97,0.00,,SCT080,0.00,241.00,VWS V14.01,2013-10-02 14:04:00,
2013-10-02 09:05:00,70.1,68.9,29.91,ESE,109,1.0,3.0,96,0.00,,CLR,0.00,478.00,VWS V14.01,2013-10-02 14:05:00,
2013-10-02 09:09:00,69.5,68.3,29.91,SE,126,0.0,0.0,96,0.00,,SCT080,0.00,387.00,VWS V14.01,2013-10-02 14:09:00,
2013-10-02 09:10:00,70.9,69.4,29.91,ESE,112,3.0,3.0,95,0.00,,CLR,0.00,452.00,VWS V14.01,2013-10-02 14:10:00,
2013-10-02 09:14:00,70.2,69.0,29.91,SSW,196,1.0,1.0,96,0.00,,SCT080,0.00,478.00,VWS V14.01,2013-10-02 14:14:00,
2013-10-02 09:15:00,71.5,69.7,29.91,North,350,0.0,4.0,94,0.00,,CLR,0.00,534.00,VWS V14.01,2013-10-02 14:15:00,
2013-10-02 09:19:00,71.0,69.5,29.91,ESE,107,2.0,4.0,95,0.00,,SCT080,0.00,452.00,VWS V14.01,2013-10-02 14:19:00,
2013-10-02 09:20:00,71.6,69.2,29.91,WNW,285,0.0,2.0,92,0.00,,CLR,0.00,216.00,VWS V14.01,2013-10-02 14:20:00,
2013-10-02 09:24:00,71.6,70.1,29.91,SSE,157,0.0,1.0,95,0.00,,SCT080,0.00,534.00,VWS V14.01,2013-10-02 14:24:00,
2013-10-02 09:25:00,71.6,69.5,29.91,East,97,0.0,3.0,93,0.00,,CLR,0.00,287.00,VWS V14.01,2013-10-02 14:25:00,
2013-10-02 09:29:00,71.6,69.5,29.91,WNW,284,0.0,1.0,93,0.00,,SCT080,0.00,216.00,VWS V14.01,2013-10-02 14:29:00,
2013-10-02 09:30:00,72.1,70.0,29.91,East,92,0.0,2.0,93,0.00,,CLR,0.00,285.00,VWS V14.01,2013-10-02 14:30:00,
2013-10-02 09:34:00,71.6,69.5,29.91,East,97,0.0,0.0,93,0.00,,SCT080,0.00,251.00,VWS V14.01,2013-10-02 14:34:00,
2013-10-02 09:35:00,72.7,70.2,29.91,WSW,258,1.0,2.0,92,0.00,,CLR,0.00,485.00,VWS V14.01,2013-10-02 14:35:00,
2013-10-02 09:39:00,72.2,70.1,29.91,East,92,0.0,0.0,93,0.00,,SCT080,0.00,341.00,VWS V14.01,2013-10-02 14:39:00,
2013-10-02 09:40:00,73.5,70.7,29.91,WSW,258,0.0,2.0,91,0.00,,CLR,0.00,515.00,VWS V14.01,2013-10-02 14:40:00,
2013-10-02 09:44:00,72.8,70.0,29.91,WSW,257,0.0,1.0,91,0.00,,SCT080,0.00,540.00,VWS V14.01,2013-10-02 14:44:00,
2013-10-02 09:45:00,73.7,70.6,29.91,NNW,340,0.0,2.0,90,0.00,,CLR,0.00,429.00,VWS V14.01,2013-10-02 14:45:00,
2013-10-02 09:49:00,73.6,70.5,29.91,WSW,237,0.0,2.0,90,0.00,,SCT080,0.00,519.00,VWS V14.01,2013-10-02 14:49:00,
2013-10-02 09:50:00,73.7,70.3,29.91,East,85,1.0,7.0,89,0.00,,CLR,0.00,401.00,VWS V14.01,2013-10-02 14:50:00,
2013-10-02 09:54:00,73.7,70.6,29.91,NNW,340,0.0,0.0,90,0.00,,SCT080,0.00,429.00,VWS V14.01,2013-10-02 14:54:00,
2013-10-02 09:55:00,73.6,70.2,29.91,SE,125,1.0,4.0,89,0.00,,CLR,0.00,306.00,VWS V14.01,2013-10-02 14:55:00,
2013-10-02 09:59:00,73.7,70.3,29.91,SE,131,0.0,4.0,89,0.00,,SCT080,0.00,462.00,VWS V14.01,2013-10-02 14:59:00,
2013-10-02 10:00:00,73.4,70.3,29.91,SW,223,0.0,2.0,90,0.00,,CLR,0.00,195.00,VWS V14.01,2013-10-02 15:00:00,
2013-10-02 10:04:00,73.6,70.2,29.91,ESE,107,0.0,1.0,89,0.00,,OVC090,0.00,306.00,VWS V14.01,2013-10-02 15:04:00,
2013-10-02 10:05:00,73.4,69.6,29.91,East,90,3.0,4.0,88,0.00,,CLR,0.00,322.00,VWS V14.01,2013-10-02 15:05:00,
2013-10-02 10:09:00,73.4,70.6,29.91,East,88,1.0,1.0,91,0.00,,OVC090,0.00,534.00,VWS V14.01,2013-10-02 15:09:00,
2013-10-02 10:10:00,73.8,70.7,29.91,ENE,76,0.0,3.0,90,0.00,,CLR,0.00,619.00,VWS V14.01,2013-10-02 15:10:00,
2013-10-02 10:14:00,73.3,70.2,29.91,ENE,76,0.0,3.0,90,0.00,,OVC090,0.00,322.00,VWS V14.01,2013-10-02 15:14:00,
2013-10-02 10:15:00,74.0,69.9,29.91,NE,44,1.0,5.0,87,0.00,,CLR,0.00,559.00,VWS V14.01,2013-10-02 15:15:00,
2013-10-02 10:19:00,74.0,70.6,29.91,SSW,196,3.0,3.0,89,0.00,,OVC090,0.00,582.00,VWS V14.01,2013-10-02 15:19:00,
2013-10-02 10:20:00,74.2,71.1,29.91,ESE,109,0.0,4.0,90,0.00,,CLR,0.00,466.00,VWS V14.01,2013-10-02 15:20:00,
2013-10-02 10:24:00,74.0,69.6,29.91,NW,321,3.0,4.0,86,0.00,,OVC090,0.00,559.00,VWS V14.01,2013-10-02 15:24:00,
2013-10-02 10:25:00,74.5,70.0,29.91,WSW,238,2.0,4.0,86,0.00,,CLR,0.00,515.00,VWS V14.01,2013-10-02 15:25:00,
2013-10-02 10:29:00,74.5,71.1,29.91,SSW,201,3.0,4.0,89,0.00,,OVC090,0.00,466.00,VWS V14.01,2013-10-02 15:29:00,
2013-10-02 10:30:00,74.6,70.1,29.91,NNW,340,0.0,4.0,86,0.00,,CLR,0.00,531.00,VWS V14.01,2013-10-02 15:30:00,
2013-10-02 10:34:00,74.5,70.4,29.91,WNW,296,2.0,4.0,87,0.00,,OVC090,0.00,554.00,VWS V14.01,2013-10-02 15:34:00,
2013-10-02 10:35:00,74.7,70.2,29.91,ESE,106,0.0,6.0,86,0.00,,CLR,0.00,649.00,VWS V14.01,2013-10-02 15:35:00,
2013-10-02 10:40:00,74.7,70.9,29.91,SE,142,2.0,4.0,88,0.00,,OVC090,0.00,378.00,VWS V14.01,2013-10-02 15:40:00,
2013-10-02 10:43:00,74.7,70.2,29.91,ESE,106,0.0,6.0,86,0.00,,OVC090,0.00,649.00,VWS V14.01,2013-10-02 15:43:00,
2013-10-02 10:45:00,75.4,70.9,29.91,NW,304,2.0,7.0,86,0.00,,CLR,0.00,717.00,VWS V14.01,2013-10-02 15:45:00,
2013-10-02 10:48:00,75.3,71.2,29.91,South,181,1.0,3.0,87,0.00,,OVC090,0.00,339.00,VWS V14.01,2013-10-02 15:48:00,
2013-10-02 10:50:00,75.7,70.9,29.91,West,281,2.0,7.0,85,0.00,,CLR,0.00,290.00,VWS V14.01,2013-10-02 15:50:00,
2013-10-02 10:54:00,75.4,70.6,29.91,East,90,2.0,2.0,85,0.00,,OVC090,0.00,717.00,VWS V14.01,2013-10-02 15:54:00,
2013-10-02 10:55:00,75.0,70.2,29.91,West,265,0.0,4.0,85,0.00,,CLR,0.00,232.00,VWS V14.01,2013-10-02 15:55:00,
2013-10-02 10:59:00,75.6,70.1,29.91,ESE,106,2.0,2.0,83,0.00,,OVC090,0.00,290.00,VWS V14.01,2013-10-02 15:59:00,
2013-10-02 11:00:00,75.1,71.0,29.91,NNE,12,1.0,6.0,87,0.00,,CLR,0.00,246.00,VWS V14.01,2013-10-02 16:00:00,
2013-10-02 11:04:00,74.9,70.1,29.91,WNW,302,0.0,2.0,85,0.00,,SCT055,0.00,232.00,VWS V14.01,2013-10-02 16:04:00,
2013-10-02 11:05:00,75.9,70.7,29.91,SW,227,1.0,6.0,84,0.00,,CLR,0.00,647.00,VWS V14.01,2013-10-02 16:05:00,
2013-10-02 11:09:00,75.2,71.1,29.91,NNE,22,1.0,1.0,87,0.00,,SCT055,0.00,647.00,VWS V14.01,2013-10-02 16:09:00,
2013-10-02 11:10:00,76.2,71.0,29.91,NNW,348,0.0,3.0,84,0.00,,CLR,0.00,339.00,VWS V14.01,2013-10-02 16:10:00,
2013-10-02 11:14:00,75.9,70.7,29.91,WSW,252,1.0,1.0,84,0.00,,SCT055,0.00,647.00,VWS V14.01,2013-10-02 16:14:00,
2013-10-02 11:15:00,76.1,70.6,29.91,ESE,117,0.0,3.0,83,0.00,,CLR,0.00,262.00,VWS V14.01,2013-10-02 16:15:00,
2013-10-02 11:19:00,76.2,70.7,29.91,NNE,15,0.0,1.0,83,0.00,,SCT055,0.00,439.00,VWS V14.01,2013-10-02 16:19:00,
2013-10-02 11:20:00,75.8,70.3,29.91,SSE,148,0.0,3.0,83,0.00,,CLR,0.00,236.00,VWS V14.01,2013-10-02 16:20:00,
2013-10-02 11:24:00,76.1,70.9,29.91,ESE,117,0.0,1.0,84,0.00,,SCT055,0.00,244.00,VWS V14.01,2013-10-02 16:24:00,
2013-10-02 11:25:00,75.6,71.1,29.91,NW,319,0.0,2.0,86,0.00,,CLR,0.00,176.00,VWS V14.01,2013-10-02 16:25:00,
2013-10-02 11:29:00,75.7,70.5,29.91,SSE,148,0.0,0.0,84,0.00,,SCT055,0.00,225.00,VWS V14.01,2013-10-02 16:29:00,
2013-10-02 11:30:00,75.2,70.4,29.91,West,280,1.0,3.0,85,0.00,,CLR,0.00,165.00,VWS V14.01,2013-10-02 16:30:00,
2013-10-02 11:34:00,75.6,70.8,29.91,West,279,3.0,3.0,85,0.00,,SCT055,0.00,176.00,VWS V14.01,2013-10-02 16:34:00,
2013-10-02 11:35:00,74.8,70.0,29.91,West,273,0.0,2.0,85,0.00,,CLR,0.00,146.00,VWS V14.01,2013-10-02 16:35:00,
2013-10-02 11:39:00,75.2,70.4,29.91,North,351,0.0,2.0,85,0.00,,SCT055,0.00,158.00,VWS V14.01,2013-10-02 16:39:00,
2013-10-02 11:40:00,74.9,70.4,29.91,SW,236,0.0,2.0,86,0.00,,CLR,0.00,181.00,VWS V14.01,2013-10-02 16:40:00,
2013-10-02 11:44:00,74.7,70.2,29.91,WNW,287,0.0,2.0,86,0.00,,SCT055,0.00,195.00,VWS V14.01,2013-10-02 16:44:00,
2013-10-02 11:45:00,74.9,70.1,29.91,WSW,239,1.0,4.0,85,0.00,,CLR,0.00,186.00,VWS V14.01,2013-10-02 16:45:00,
2013-10-02 11:49:00,74.9,70.4,29.91,SW,236,0.0,1.0,86,0.00,,SCT055,0.00,181.00,VWS V14.01,2013-10-02 16:49:00,
2013-10-02 11:50:00,74.9,70.1,29.91,East,92,0.0,2.0,85,0.00,,CLR,0.00,193.00,VWS V14.01,2013-10-02 16:50:00,
2013-10-02 11:54:00,74.9,70.1,29.91,WSW,239,0.0,1.0,85,0.00,,SCT055,0.00,186.00,VWS V14.01,2013-10-02 16:54:00,
2013-10-02 11:55:00,75.1,70.3,29.91,WNW,289,0.0,4.0,85,0.00,,CLR,0.00,142.00,VWS V14.01,2013-10-02 16:55:00,
2013-10-02 11:59:00,75.0,70.5,29.91,East,92,0.0,0.0,86,0.00,,SCT055,0.00,193.00,VWS V14.01,2013-10-02 16:59:00,
2013-10-02 12:00:00,75.1,71.0,29.90,East,89,0.0,2.0,87,0.00,,CLR,0.00,325.00,VWS V14.01,2013-10-02 17:00:00,
2013-10-02 12:04:00,74.9,70.1,29.91,WNW,289,0.0,0.0,85,0.00,,OVC032,0.00,156.00,VWS V14.01,2013-10-02 17:04:00,
2013-10-02 12:05:00,75.8,70.6,29.90,East,98,0.0,2.0,84,0.00,,CLR,0.00,346.00,VWS V14.01,2013-10-02 17:05:00,
2013-10-02 12:09:00,75.3,70.8,29.90,East,89,0.0,0.0,86,0.00,,OVC032,0.00,325.00,VWS V14.01,2013-10-02 17:09:00,
2013-10-02 12:10:00,76.5,71.3,29.90,West,278,1.0,4.0,84,0.00,,CLR,0.00,385.00,VWS V14.01,2013-10-02 17:10:00,
2013-10-02 12:14:00,75.9,71.4,29.90,East,98,0.0,0.0,86,0.00,,OVC032,0.00,366.00,VWS V14.01,2013-10-02 17:14:00,
2013-10-02 12:15:00,76.0,70.5,29.89,ESE,114,0.0,3.0,83,0.00,,CLR,0.00,279.00,VWS V14.01,2013-10-02 17:15:00,
2013-10-02 12:19:00,76.5,71.0,29.90,SSW,192,1.0,2.0,83,0.00,,OVC032,0.00,385.00,VWS V14.01,2013-10-02 17:19:00,
2013-10-02 12:20:00,75.6,71.1,29.89,SSW,194,0.0,4.0,86,0.00,,CLR,0.00,325.00,VWS V14.01,2013-10-02 17:20:00,
2013-10-02 12:24:00,75.9,70.7,29.89,ESE,115,2.0,2.0,84,0.00,,OVC032,0.00,265.00,VWS V14.01,2013-10-02 17:24:00,
2013-10-02 12:25:00,75.9,71.4,29.89,WNW,286,1.0,4.0,86,0.00,,CLR,0.00,671.00,VWS V14.01,2013-10-02 17:25:00,
2013-10-02 12:29:00,75.5,70.3,29.89,SE,127,4.0,4.0,84,0.00,,OVC032,0.00,348.00,VWS V14.01,2013-10-02 17:29:00,
2013-10-02 12:30:00,76.5,71.0,29.89,East,99,0.0,3.0,83,0.00,,CLR,0.00,425.00,VWS V14.01,2013-10-02 17:30:00,
2013-10-02 12:34:00,76.1,71.3,29.89,ESE,116,0.0,3.0,85,0.00,,OVC032,0.00,671.00,VWS V14.01,2013-10-02 17:34:00,
2013-10-02 12:35:00,76.9,72.1,29.89,WSW,244,1.0,4.0,85,0.00,,CLR,0.00,461.00,VWS V14.01,2013-10-02 17:35:00,
2013-10-02 12:39:00,76.6,72.1,29.89,East,99,0.0,1.0,86,0.00,,OVC032,0.00,425.00,VWS V14.01,2013-10-02 17:39:00,
2013-10-02 12:40:00,77.1,71.2,29.89,ESE,102,2.0,7.0,82,0.00,,CLR,0.00,858.00,VWS V14.01,2013-10-02 17:40:00,
2013-10-02 12:44:00,76.9,71.0,29.89,SSE,157,2.0,4.0,82,0.00,,OVC032,0.00,461.00,VWS V14.01,2013-10-02 17:44:00,
2013-10-02 12:45:00,77.6,72.0,29.88,SE,129,0.0,4.0,83,0.00,,CLR,0.00,940.00,VWS V14.01,2013-10-02 17:45:00,
2013-10-02 12:49:00,77.1,70.8,29.89,East,96,0.0,4.0,81,0.00,,OVC032,0.00,858.00,VWS V14.01,2013-10-02 17:49:00,
2013-10-02 12:50:00,78.0,71.3,29.88,SW,232,1.0,5.0,80,0.00,,CLR,0.00,904.00,VWS V14.01,2013-10-02 17:50:00,
2013-10-02 12:55:00,77.7,71.8,29.88,NW,306,2.0,4.0,82,0.00,,OVC032,0.00,904.00,VWS V14.01,2013-10-02 17:55:00,
2013-10-02 13:00:00,78.1,72.2,29.88,ESE,117,5.0,5.0,82,0.00,,OVC032,0.00,830.00,VWS V14.01,2013-10-02 18:00:00,
2013-10-02 13:05:00,78.0,71.0,29.88,South,169,0.0,5.0,79,0.00,, +RA,0.00,522.00,VWS V14.01,2013-10-02 18:05:00,
2013-10-02 13:10:00,78.4,71.7,29.88,West,280,5.0,5.0,80,0.00,, +RA,0.00,754.00,VWS V14.01,2013-10-02 18:10:00,
2013-10-02 13:15:00,78.3,71.3,29.88,East,100,0.0,6.0,79,0.00,, +RA,0.00,766.00,VWS V14.01,2013-10-02 18:15:00,
2013-10-02 13:20:00,78.2,71.5,29.88,East,99,3.0,5.0,80,0.00,, +RA,0.00,309.00,VWS V14.01,2013-10-02 18:20:00,
2013-10-02 13:25:00,78.6,71.9,29.86,NW,314,0.0,1.0,80,0.00,, +RA,0.00,265.00,VWS V14.01,2013-10-02 18:25:00,
2013-10-02 13:30:00,78.1,70.7,29.86,ENE,70,1.0,3.0,78,0.00,, +RA,0.00,239.00,VWS V14.01,2013-10-02 18:30:00,
2013-10-02 13:35:00,77.9,71.6,29.86,West,267,3.0,5.0,81,0.00,,-RA,0.00,239.00,VWS V14.01,2013-10-02 18:35:00,
2013-10-02 13:40:00,78.5,71.4,29.86,ESE,105,0.0,4.0,79,0.00,,-RA,0.00,775.00,VWS V14.01,2013-10-02 18:40:00,
2013-10-02 13:45:00,79.0,71.6,29.86,West,261,5.0,5.0,78,0.00,,-RA,0.00,782.00,VWS V14.01,2013-10-02 18:45:00,
2013-10-02 13:50:00,79.0,71.2,29.86,SW,234,2.0,5.0,77,0.00,,-RA,0.00,777.00,VWS V14.01,2013-10-02 18:50:00,
2013-10-02 13:55:00,79.4,70.8,29.85,West,263,1.0,6.0,75,0.00,,-RA,0.00,271.00,VWS V14.01,2013-10-02 18:55:00,
2013-10-02 14:00:00,79.0,71.2,29.85,ESE,119,1.0,3.0,77,0.00,,BKN110,0.00,306.00,VWS V14.01,2013-10-02 19:00:00,
2013-10-02 14:05:00,78.4,71.0,29.85,South,190,1.0,3.0,78,0.00,,BKN110,0.00,220.00,VWS V14.01,2013-10-02 19:05:00,
2013-10-02 14:10:00,77.8,70.8,29.84,NNW,330,0.0,3.0,79,0.00,,BKN110,0.00,267.00,VWS V14.01,2013-10-02 19:10:00,
2013-10-02 14:15:00,77.8,71.5,29.84,South,180,0.0,2.0,81,0.00,,BKN110,0.00,253.00,VWS V14.01,2013-10-02 19:15:00,
2013-10-02 14:20:00,77.6,71.7,29.84,South,188,0.0,0.0,82,0.00,,BKN110,0.00,214.00,VWS V14.01,2013-10-02 19:20:00,
2013-10-02 14:25:00,77.3,71.4,29.84,SSW,196,0.0,1.0,82,0.00,,BKN110,0.00,185.00,VWS V14.01,2013-10-02 19:25:00,
2013-10-02 14:30:00,77.2,70.9,29.84,South,182,0.0,1.0,81,0.00,,BKN110,0.00,188.00,VWS V14.01,2013-10-02 19:30:00,
2013-10-02 14:35:00,77.1,71.2,29.84,WSW,239,0.0,1.0,82,0.00,,BKN110,0.00,376.00,VWS V14.01,2013-10-02 19:35:00,
2013-10-02 14:40:00,77.9,72.0,29.83,East,97,0.0,3.0,82,0.00,,BKN110,0.00,415.00,VWS V14.01,2013-10-02 19:40:00,
2013-10-02 14:45:00,77.6,70.6,29.83,East,101,2.0,6.0,79,0.00,,BKN110,0.00,241.00,VWS V14.01,2013-10-02 19:45:00,
2013-10-02 14:50:00,76.4,70.5,29.83,ESE,103,0.0,2.0,82,0.00,,BKN110,0.00,204.00,VWS V14.01,2013-10-02 19:50:00,
2013-10-02 14:55:00,75.8,71.3,29.83,East,97,0.0,1.0,86,0.00,,CLR,0.00,200.00,VWS V14.01,2013-10-02 19:55:00,
2013-10-02 14:56:00,75.9,70.4,29.83,ESE,105,1.0,2.0,83,0.00,,BKN110,0.00,181.00,VWS V14.01,2013-10-02 19:56:00,
2013-10-02 15:00:00,75.9,71.4,29.83,ESE,112,0.0,5.0,86,0.00,,CLR,0.00,338.00,VWS V14.01,2013-10-02 20:00:00,
2013-10-02 15:01:00,75.8,71.3,29.83,ESE,110,0.0,1.0,86,0.00,,BKN110,0.00,193.00,VWS V14.01,2013-10-02 20:01:00,
2013-10-02 15:05:00,75.9,71.8,29.83,SE,132,0.0,2.0,87,0.00,,CLR,0.00,269.00,VWS V14.01,2013-10-02 20:05:00,
2013-10-02 15:06:00,75.9,71.8,29.83,ESE,103,0.0,5.0,87,0.00,,BKN110,0.00,213.00,VWS V14.01,2013-10-02 20:06:00,
2013-10-02 15:10:00,76.4,70.9,29.83,SE,128,0.0,2.0,83,0.00,,CLR,0.00,364.00,VWS V14.01,2013-10-02 20:10:00,
2013-10-02 15:11:00,75.9,71.4,29.83,SSE,158,0.0,2.0,86,0.00,,BKN110,0.00,250.00,VWS V14.01,2013-10-02 20:11:00,
2013-10-02 15:15:00,76.7,71.2,29.82,SE,128,0.0,1.0,83,0.00,,CLR,0.00,260.00,VWS V14.01,2013-10-02 20:15:00,
2013-10-02 15:16:00,76.0,71.5,29.83,SE,139,1.0,2.0,86,0.00,,BKN110,0.00,329.00,VWS V14.01,2013-10-02 20:16:00,
2013-10-02 15:20:00,76.6,70.7,29.82,SE,128,0.0,1.0,82,0.00,,CLR,0.00,369.00,VWS V14.01,2013-10-02 20:20:00,
2013-10-02 15:21:00,76.5,71.3,29.83,SE,128,0.0,0.0,84,0.00,,BKN110,0.00,267.00,VWS V14.01,2013-10-02 20:21:00,
2013-10-02 15:25:00,77.5,71.6,29.82,West,269,2.0,3.0,82,0.00,,CLR,0.00,591.00,VWS V14.01,2013-10-02 20:25:00,
2013-10-02 15:26:00,76.6,70.7,29.82,SE,128,0.0,1.0,82,0.00,,BKN110,0.00,288.00,VWS V14.01,2013-10-02 20:26:00,
2013-10-02 15:30:00,78.2,72.6,29.82,ESE,116,0.0,3.0,83,0.00,,CLR,0.00,700.00,VWS V14.01,2013-10-02 20:30:00,
2013-10-02 15:31:00,77.1,71.5,29.82,SE,128,0.0,0.0,83,0.00,,BKN110,0.00,392.00,VWS V14.01,2013-10-02 20:31:00,
2013-10-02 15:35:00,78.8,73.2,29.82,ESE,104,2.0,7.0,83,0.00,,CLR,0.00,659.00,VWS V14.01,2013-10-02 20:35:00,
2013-10-02 15:36:00,77.6,72.4,29.82,West,269,0.0,3.0,84,0.00,,BKN110,0.00,700.00,VWS V14.01,2013-10-02 20:36:00,
2013-10-02 15:40:00,78.7,70.9,29.82,SSW,193,1.0,5.0,77,0.00,,CLR,0.00,664.00,VWS V14.01,2013-10-02 20:40:00,
2013-10-02 15:41:00,78.4,72.1,29.82,SSW,208,1.0,7.0,81,0.00,,BKN110,0.00,670.00,VWS V14.01,2013-10-02 20:41:00,
2013-10-02 15:45:00,78.3,70.9,29.82,NE,35,4.0,6.0,78,0.00,,CLR,0.00,656.00,VWS V14.01,2013-10-02 20:45:00,
2013-10-02 15:46:00,78.8,71.0,29.82,East,96,2.0,5.0,77,0.00,,BKN110,0.00,668.00,VWS V14.01,2013-10-02 20:46:00,
2013-10-02 15:50:00,78.6,70.8,29.82,ESE,115,1.0,5.0,77,0.00,,CLR,0.00,617.00,VWS V14.01,2013-10-02 20:50:00,
2013-10-02 15:51:00,78.5,71.1,29.82,East,100,3.0,5.0,78,0.00,,BKN110,0.00,661.00,VWS V14.01,2013-10-02 20:51:00,
2013-10-02 15:55:00,78.9,70.7,29.82,ESE,117,0.0,3.0,76,0.00,,CLR,0.00,571.00,VWS V14.01,2013-10-02 20:55:00,
2013-10-02 15:56:00,78.4,70.6,29.82,ESE,105,1.0,5.0,77,0.00,,BKN110,0.00,649.00,VWS V14.01,2013-10-02 20:56:00,
2013-10-02 16:00:00,79.6,71.8,29.81,SE,126,1.0,3.0,77,0.00,,CLR,0.00,531.00,VWS V14.01,2013-10-02 21:00:00,
2013-10-02 16:01:00,78.8,71.0,29.82,ESE,121,1.0,3.0,77,0.00,,BKN120,0.00,577.00,VWS V14.01,2013-10-02 21:01:00,
2013-10-02 16:05:00,79.6,71.4,29.81,East,97,0.0,4.0,76,0.00,,CLR,0.00,515.00,VWS V14.01,2013-10-02 21:05:00,
2013-10-02 16:06:00,79.5,72.8,29.82,ESE,118,1.0,1.0,80,0.00,,BKN120,0.00,536.00,VWS V14.01,2013-10-02 21:06:00,
2013-10-02 16:10:00,79.2,71.8,29.81,East,96,0.0,2.0,78,0.00,,CLR,0.00,459.00,VWS V14.01,2013-10-02 21:10:00,
2013-10-02 16:11:00,79.6,71.4,29.81,ESE,112,0.0,4.0,76,0.00,,BKN120,0.00,526.00,VWS V14.01,2013-10-02 21:11:00,
2013-10-02 16:15:00,79.2,71.8,29.80,East,101,2.0,5.0,78,0.00,,CLR,0.00,469.00,VWS V14.01,2013-10-02 21:15:00,
2013-10-02 16:16:00,79.3,70.7,29.81,East,96,1.0,2.0,75,0.00,,BKN120,0.00,139.00,VWS V14.01,2013-10-02 21:16:00,
2013-10-02 16:20:00,79.4,71.9,29.80,South,190,0.0,3.0,78,0.00,,CLR,0.00,452.00,VWS V14.01,2013-10-02 21:20:00,
2013-10-02 16:21:00,79.2,71.0,29.81,SSE,155,2.0,4.0,76,0.00,,BKN120,0.00,188.00,VWS V14.01,2013-10-02 21:21:00,
2013-10-02 16:25:00,79.7,72.2,29.80,ESE,119,0.0,5.0,78,0.00,,CLR,0.00,434.00,VWS V14.01,2013-10-02 21:25:00,
2013-10-02 16:26:00,79.3,71.1,29.80,ESE,102,0.0,3.0,76,0.00,,BKN120,0.00,471.00,VWS V14.01,2013-10-02 21:26:00,
2013-10-02 16:30:00,79.7,72.6,29.80,North,11,1.0,5.0,79,0.00,,CLR,0.00,450.00,VWS V14.01,2013-10-02 21:30:00,
2013-10-02 16:31:00,79.6,71.4,29.80,South,188,1.0,5.0,76,0.00,,BKN120,0.00,450.00,VWS V14.01,2013-10-02 21:31:00,
2013-10-02 16:35:00,79.4,71.2,29.80,SSW,198,1.0,7.0,76,0.00,,CLR,0.00,469.00,VWS V14.01,2013-10-02 21:35:00,
2013-10-02 16:36:00,79.6,71.4,29.80,SW,225,3.0,5.0,76,0.00,,BKN120,0.00,438.00,VWS V14.01,2013-10-02 21:36:00,
2013-10-02 16:40:00,78.9,71.1,29.80,ESE,110,1.0,7.0,77,0.00,,CLR,0.00,397.00,VWS V14.01,2013-10-02 21:40:00,
2013-10-02 16:41:00,79.7,71.5,29.80,ESE,106,0.0,7.0,76,0.00,,BKN120,0.00,418.00,VWS V14.01,2013-10-02 21:41:00,
2013-10-02 16:45:00,77.8,70.4,29.80,East,99,0.0,3.0,78,0.00,,CLR,0.00,151.00,VWS V14.01,2013-10-02 21:45:00,
2013-10-02 16:46:00,79.1,71.7,29.80,SSW,196,3.0,7.0,78,0.00,,BKN120,0.00,468.00,VWS V14.01,2013-10-02 21:46:00,
2013-10-02 16:50:00,76.8,70.9,29.80,ESE,105,1.0,3.0,82,0.00,,CLR,0.00,255.00,VWS V14.01,2013-10-02 21:50:00,
2013-10-02 16:51:00,78.2,71.2,29.80,SE,134,2.0,3.0,79,0.00,,BKN120,0.00,163.00,VWS V14.01,2013-10-02 21:51:00,
2013-10-02 16:55:00,76.5,71.0,29.80,SE,128,1.0,4.0,83,0.00,,CLR,0.00,174.00,VWS V14.01,2013-10-02 21:55:00,
2013-10-02 16:56:00,77.2,70.9,29.80,ESE,107,2.0,3.0,81,0.00,,BKN120,0.00,162.00,VWS V14.01,2013-10-02 21:56:00,
2013-10-02 17:00:00,76.4,71.2,29.81,SSE,165,0.0,3.0,84,0.00,,CLR,0.00,323.00,VWS V14.01,2013-10-02 22:00:00,
2013-10-02 17:01:00,76.6,71.1,29.80,East,89,0.0,3.0,83,0.00,,FEW110,0.00,257.00,VWS V14.01,2013-10-02 22:01:00,
2013-10-02 17:05:00,76.5,70.6,29.81,ENE,69,0.0,5.0,82,0.00,,CLR,0.00,304.00,VWS V14.01,2013-10-02 22:05:00,
2013-10-02 17:06:00,76.6,71.8,29.80,ESE,110,0.0,1.0,85,0.00,,FEW110,0.00,156.00,VWS V14.01,2013-10-02 22:06:00,
2013-10-02 17:10:00,76.0,69.4,29.81,ENE,67,0.0,2.0,80,0.00,,CLR,0.00,86.00,VWS V14.01,2013-10-02 22:10:00,
2013-10-02 17:12:00,76.5,70.6,29.81,SSE,148,0.0,4.0,82,0.00,,FEW110,0.00,302.00,VWS V14.01,2013-10-02 22:12:00,
2013-10-02 17:15:00,75.6,69.4,29.81,SE,133,1.0,2.0,81,0.00,,CLR,0.00,241.00,VWS V14.01,2013-10-02 22:15:00,
2013-10-02 17:17:00,76.3,69.7,29.81,East,86,0.0,2.0,80,0.00,,FEW110,0.00,97.00,VWS V14.01,2013-10-02 22:17:00,
2013-10-02 17:20:00,75.6,70.1,29.81,SE,134,2.0,3.0,83,0.00,,CLR,0.00,229.00,VWS V14.01,2013-10-02 22:20:00,
2013-10-02 17:22:00,75.7,69.5,29.81,East,94,0.0,2.0,81,0.00,,FEW110,0.00,225.00,VWS V14.01,2013-10-02 22:22:00,
2013-10-02 17:25:00,75.8,70.6,29.81,South,182,0.0,2.0,84,0.00,,CLR,0.00,204.00,VWS V14.01,2013-10-02 22:25:00,
2013-10-02 17:27:00,75.5,69.6,29.81,SE,138,0.0,2.0,82,0.00,,FEW110,0.00,84.00,VWS V14.01,2013-10-02 22:27:00,
2013-10-02 17:30:00,75.9,70.4,29.81,ESE,114,1.0,5.0,83,0.00,,CLR,0.00,186.00,VWS V14.01,2013-10-02 22:30:00,
2013-10-02 17:32:00,75.8,70.6,29.81,South,182,0.0,2.0,84,0.00,,FEW110,0.00,220.00,VWS V14.01,2013-10-02 22:32:00,
2013-10-02 17:35:00,75.7,70.5,29.81,SE,124,0.0,3.0,84,0.00,,CLR,0.00,176.00,VWS V14.01,2013-10-02 22:35:00,
2013-10-02 17:37:00,76.0,70.5,29.81,East,84,1.0,2.0,83,0.00,,FEW110,0.00,97.00,VWS V14.01,2013-10-02 22:37:00,
2013-10-02 17:40:00,75.7,70.5,29.81,ESE,113,2.0,3.0,84,0.00,,CLR,0.00,155.00,VWS V14.01,2013-10-02 22:40:00,
2013-10-02 17:42:00,75.7,70.5,29.81,SE,124,0.0,3.0,84,0.00,,FEW110,0.00,176.00,VWS V14.01,2013-10-02 22:42:00,
2013-10-02 17:45:00,75.6,70.4,29.81,SE,126,0.0,3.0,84,0.00,,CLR,0.00,135.00,VWS V14.01,2013-10-02 22:45:00,
2013-10-02 17:47:00,75.6,70.4,29.81,NE,44,2.0,2.0,84,0.00,,FEW110,0.00,165.00,VWS V14.01,2013-10-02 22:47:00,
2013-10-02 17:50:00,75.6,70.4,29.81,East,97,0.0,4.0,84,0.00,,CLR,0.00,141.00,VWS V14.01,2013-10-02 22:50:00,
2013-10-02 17:52:00,75.6,70.4,29.81,SE,124,0.0,3.0,84,0.00,,FEW110,0.00,167.00,VWS V14.01,2013-10-02 22:52:00,
2013-10-02 17:55:00,75.7,70.5,29.81,ESE,121,1.0,3.0,84,0.00,,CLR,0.00,120.00,VWS V14.01,2013-10-02 22:55:00,
2013-10-02 17:57:00,75.6,70.4,29.81,East,101,0.0,4.0,84,0.00,,FEW110,0.00,146.00,VWS V14.01,2013-10-02 22:57:00,
2013-10-02 18:00:00,75.7,70.9,29.81,ESE,121,1.0,1.0,85,0.00,,CLR,0.00,116.00,VWS V14.01,2013-10-02 23:00:00,
2013-10-02 18:02:00,75.7,70.5,29.81,ESE,121,0.0,3.0,84,0.00,,-RA,0.00,121.00,VWS V14.01,2013-10-02 23:02:00,
2013-10-02 18:05:00,75.7,70.5,29.81,ESE,121,0.0,1.0,84,0.00,,CLR,0.00,116.00,VWS V14.01,2013-10-02 23:05:00,
2013-10-02 18:07:00,75.7,70.9,29.81,ESE,121,0.0,1.0,85,0.00,,-RA,0.00,116.00,VWS V14.01,2013-10-02 23:07:00,
2013-10-02 18:10:00,75.8,71.0,29.81,ESE,121,1.0,2.0,85,0.00,,CLR,0.00,97.00,VWS V14.01,2013-10-02 23:10:00,
2013-10-02 18:12:00,75.7,70.9,29.81,ESE,121,0.0,1.0,85,0.00,,-RA,0.00,120.00,VWS V14.01,2013-10-02 23:12:00,
2013-10-02 18:15:00,76.1,71.3,29.81,ESE,121,1.0,1.0,85,0.00,,CLR,0.00,70.00,VWS V14.01,2013-10-02 23:15:00,
2013-10-02 18:17:00,75.8,71.0,29.81,ESE,121,0.0,2.0,85,0.00,,-RA,0.00,100.00,VWS V14.01,2013-10-02 23:17:00,
2013-10-02 18:20:00,76.3,71.1,29.81,ESE,121,0.0,2.0,84,0.00,,CLR,0.00,49.00,VWS V14.01,2013-10-02 23:20:00,
2013-10-02 18:22:00,76.0,70.8,29.81,ESE,121,0.0,1.0,84,0.00,,-RA,0.00,79.00,VWS V14.01,2013-10-02 23:22:00,
2013-10-02 18:25:00,76.4,70.9,29.81,East,98,0.0,2.0,83,0.00,,CLR,0.00,30.00,VWS V14.01,2013-10-02 23:25:00,
2013-10-02 18:27:00,76.3,71.1,29.81,ESE,121,0.0,2.0,84,0.00,,-RA,0.00,53.00,VWS V14.01,2013-10-02 23:27:00,
2013-10-02 18:30:00,76.3,70.8,29.81,East,98,0.0,1.0,83,0.00,,CLR,0.00,19.00,VWS V14.01,2013-10-02 23:30:00,
2013-10-02 18:32:00,76.4,70.9,29.81,ESE,107,1.0,2.0,83,0.00,,-RA,0.00,35.00,VWS V14.01,2013-10-02 23:32:00,
2013-10-02 18:35:00,76.1,70.6,29.81,East,80,0.0,2.0,83,0.00,,CLR,0.00,19.00,VWS V14.01,2013-10-02 23:35:00,
2013-10-02 18:37:00,76.3,70.8,29.81,East,98,0.0,1.0,83,0.00,,-RA,0.00,21.00,VWS V14.01,2013-10-02 23:37:00,
2013-10-02 18:40:00,75.9,70.7,29.81,East,80,0.0,0.0,84,0.00,,CLR,0.00,12.00,VWS V14.01,2013-10-02 23:40:00,
2013-10-02 18:42:00,76.1,70.6,29.81,East,80,0.0,2.0,83,0.00,,-RA,0.00,19.00,VWS V14.01,2013-10-02 23:42:00,
2013-10-02 18:45:00,75.6,70.4,29.81,ESE,117,0.0,3.0,84,0.00,,CLR,0.00,5.00,VWS V14.01,2013-10-02 23:45:00,
2013-10-02 18:47:00,75.9,70.7,29.81,East,80,0.0,0.0,84,0.00,,-RA,0.00,14.00,VWS V14.01,2013-10-02 23:47:00,
2013-10-02 18:50:00,75.3,70.1,29.81,SE,127,0.0,2.0,84,0.00,,CLR,0.00,0.00,VWS V14.01,2013-10-02 23:50:00,
2013-10-02 18:52:00,75.7,70.5,29.81,ESE,117,0.0,3.0,84,0.00,,-RA,0.00,7.00,VWS V14.01,2013-10-02 23:52:00,
2013-10-02 18:54:00,75.6,70.4,29.81,ESE,117,0.0,0.0,84,0.00,,-RA,0.00,0.00,VWS V14.01,2013-10-02 23:54:00,
2013-10-02 18:55:00,75.1,70.3,29.81,SE,139,0.0,2.0,85,0.00,,CLR,0.00,0.00,VWS V14.01,2013-10-02 23:55:00,
2013-10-02 18:59:00,75.3,70.1,29.81,SE,127,0.0,0.0,84,0.00,,-RA,0.00,0.00,VWS V14.01,2013-10-02 23:59:00,
2013-10-02 19:00:00,74.8,70.3,29.81,SE,138,0.0,1.0,86,0.00,,CLR,0.00,0.00,VWS V14.01,2013-10-03 00:00:00,
2013-10-02 19:04:00,75.0,70.2,29.81,SE,139,0.0,0.0,85,0.00,,FEW110,0.00,0.00,VWS V14.01,2013-10-03 00:04:00,
2013-10-02 19:05:00,74.5,70.0,29.81,ESE,114,1.0,1.0,86,0.00,,CLR,0.00,0.00,VWS V14.01,2013-10-03 00:05:00,
2013-10-02 19:09:00,74.7,70.2,29.81,SE,138,0.0,0.0,86,0.00,,FEW110,0.00,0.00,VWS V14.01,2013-10-03 00:09:00,
2013-10-02 19:10:00,74.1,70.0,29.81,ESE,115,1.0,2.0,87,0.00,,CLR,0.00,0.00,VWS V14.01,2013-10-03 00:10:00,
2013-10-02 19:14:00,74.4,69.9,29.81,SSE,148,0.0,2.0,86,0.00,,FEW110,0.00,0.00,VWS V14.01,2013-10-03 00:14:00,
2013-10-02 19:15:00,73.7,69.6,29.82,SE,144,2.0,2.0,87,0.00,,CLR,0.00,0.00,VWS V14.01,2013-10-03 00:15:00,
2013-10-02 19:19:00,74.0,69.9,29.81,ESE,115,0.0,1.0,87,0.00,,FEW110,0.00,0.00,VWS V14.01,2013-10-03 00:19:00,
2013-10-02 19:20:00,73.5,69.7,29.82,SSE,149,0.0,2.0,88,0.00,,CLR,0.00,0.00,VWS V14.01,2013-10-03 00:20:00,
2013-10-02 19:24:00,73.7,69.6,29.82,SSE,149,0.0,2.0,87,0.00,,FEW110,0.00,0.00,VWS V14.01,2013-10-03 00:24:00,
2013-10-02 19:25:00,73.3,69.5,29.82,ESE,102,0.0,4.0,88,0.00,,CLR,0.00,0.00,VWS V14.01,2013-10-03 00:25:00,
2013-10-02 19:30:00,73.5,69.7,29.82,SSE,159,0.0,4.0,88,0.00,,FEW110,0.00,0.00,VWS V14.01,2013-10-03 00:30:00,
2013-10-02 19:35:00,73.2,69.4,29.82,ESE,121,0.0,3.0,88,0.00,,FEW110,0.00,0.00,VWS V14.01,2013-10-03 00:35:00,
2013-10-02 19:40:00,72.9,69.1,29.82,SE,129,0.0,0.0,88,0.00,,FEW110,0.00,0.00,VWS V14.01,2013-10-03 00:40:00,
2013-10-02 19:45:00,72.7,69.3,29.82,East,80,0.0,0.0,89,0.00,,FEW110,0.00,0.00,VWS V14.01,2013-10-03 00:45:00,
2013-10-02 19:50:00,72.5,69.1,29.82,SE,124,0.0,1.0,89,0.00,,FEW110,0.00,0.00,VWS V14.01,2013-10-03 00:50:00,
2013-10-02 19:55:00,72.3,68.9,29.82,ESE,116,2.0,3.0,89,0.00,,FEW110,0.00,0.00,VWS V14.01,2013-10-03 00:55:00,
2013-10-02 20:00:00,72.1,69.0,29.82,SE,134,0.0,0.0,90,0.00,,FEW110,0.00,0.00,VWS V14.01,2013-10-03 01:00:00,
2013-10-02 20:05:00,71.9,68.8,29.82,SSE,152,1.0,3.0,90,0.00,,CLR,0.00,0.00,VWS V14.01,2013-10-03 01:05:00,
2013-10-02 20:10:00,71.7,68.9,29.82,South,172,0.0,3.0,91,0.00,,CLR,0.00,0.00,VWS V14.01,2013-10-03 01:10:00,
2013-10-02 20:15:00,71.6,68.8,29.82,SSE,150,0.0,1.0,91,0.00,,CLR,0.00,0.00,VWS V14.01,2013-10-03 01:15:00,
2013-10-02 20:20:00,71.5,68.7,29.82,South,179,1.0,2.0,91,0.00,,CLR,0.00,0.00,VWS V14.01,2013-10-03 01:20:00,
2013-10-02 20:25:00,71.5,68.7,29.82,ESE,111,0.0,2.0,91,0.00,,CLR,0.00,0.00,VWS V14.01,2013-10-03 01:25:00,
2013-10-02 20:30:00,71.4,69.0,29.82,SE,134,0.0,1.0,92,0.00,,CLR,0.00,0.00,VWS V14.01,2013-10-03 01:30:00,
2013-10-02 20:35:00,71.4,69.0,29.82,ESE,103,3.0,7.0,92,0.00,,CLR,0.00,0.00,VWS V14.01,2013-10-03 01:35:00,
2013-10-02 20:40:00,71.4,69.0,29.83,ESE,114,0.0,5.0,92,0.00,,CLR,0.00,0.00,VWS V14.01,2013-10-03 01:40:00,
2013-10-02 20:45:00,71.3,68.9,29.83,ESE,111,2.0,3.0,92,0.00,,CLR,0.00,0.00,VWS V14.01,2013-10-03 01:45:00,
2013-10-02 20:50:00,71.3,68.9,29.83,East,86,0.0,1.0,92,0.00,,CLR,0.00,0.00,VWS V14.01,2013-10-03 01:50:00,
2013-10-02 20:55:00,71.3,68.9,29.83,East,95,0.0,1.0,92,0.00,,CLR,0.00,0.00,VWS V14.01,2013-10-03 01:55:00,
2013-10-02 21:00:00,71.2,69.1,29.83,ESE,107,0.0,1.0,93,0.00,,CLR,0.00,0.00,VWS V14.01,2013-10-03 02:00:00,
2013-10-02 21:05:00,71.1,69.0,29.83,SE,132,0.0,2.0,93,0.00,,CLR,0.00,0.00,VWS V14.01,2013-10-03 02:05:00,
2013-10-02 21:08:00,71.0,68.9,29.83,SE,132,0.0,2.0,93,0.00,,CLR,0.00,0.00,VWS V14.01,2013-10-03 02:08:00,
2013-10-02 21:10:00,70.8,68.7,29.83,East,79,0.0,2.0,93,0.00,,CLR,0.00,0.00,VWS V14.01,2013-10-03 02:10:00,
2013-10-02 21:13:00,71.0,68.9,29.83,ENE,71,2.0,3.0,93,0.00,,CLR,0.00,0.00,VWS V14.01,2013-10-03 02:13:00,
2013-10-02 21:15:00,70.7,68.6,29.83,East,98,0.0,5.0,93,0.00,,CLR,0.00,0.00,VWS V14.01,2013-10-03 02:15:00,
2013-10-02 21:19:00,70.8,68.7,29.83,East,79,0.0,0.0,93,0.00,,CLR,0.00,0.00,VWS V14.01,2013-10-03 02:19:00,
2013-10-02 21:20:00,70.6,68.5,29.83,SE,132,0.0,3.0,93,0.00,,CLR,0.00,0.00,VWS V14.01,2013-10-03 02:20:00,
2013-10-02 21:24:00,70.7,68.6,29.83,East,98,0.0,0.0,93,0.00,,CLR,0.00,0.00,VWS V14.01,2013-10-03 02:24:00,
2013-10-02 21:25:00,70.5,68.7,29.83,ESE,103,0.0,4.0,94,0.00,,CLR,0.00,0.00,VWS V14.01,2013-10-03 02:25:00,
2013-10-02 21:29:00,70.6,68.5,29.83,SE,132,0.0,0.0,93,0.00,,CLR,0.00,0.00,VWS V14.01,2013-10-03 02:29:00,
2013-10-02 21:30:00,70.4,68.6,29.83,SE,130,0.0,2.0,94,0.00,,CLR,0.00,0.00,VWS V14.01,2013-10-03 02:30:00,
2013-10-02 21:34:00,70.5,68.7,29.83,ESE,103,0.0,0.0,94,0.00,,CLR,0.00,0.00,VWS V14.01,2013-10-03 02:34:00,
2013-10-02 21:35:00,70.3,68.5,29.83,SE,126,0.0,2.0,94,0.00,,CLR,0.00,0.00,VWS V14.01,2013-10-03 02:35:00,
2013-10-02 21:39:00,70.4,68.6,29.83,SE,130,0.0,0.0,94,0.00,,CLR,0.00,0.00,VWS V14.01,2013-10-03 02:39:00,
2013-10-02 21:40:00,70.3,68.5,29.83,SE,132,0.0,2.0,94,0.00,,CLR,0.00,0.00,VWS V14.01,2013-10-03 02:40:00,
2013-10-02 21:44:00,70.3,68.5,29.83,SE,126,0.0,1.0,94,0.00,,CLR,0.00,0.00,VWS V14.01,2013-10-03 02:44:00,
2013-10-02 21:45:00,70.2,68.4,29.84,SE,132,0.0,1.0,94,0.00,,CLR,0.00,0.00,VWS V14.01,2013-10-03 02:45:00,
2013-10-02 21:49:00,70.2,68.4,29.83,SE,132,0.0,0.0,94,0.00,,CLR,0.00,0.00,VWS V14.01,2013-10-03 02:49:00,
2013-10-02 21:50:00,70.0,68.2,29.84,SSE,151,0.0,3.0,94,0.00,,CLR,0.00,0.00,VWS V14.01,2013-10-03 02:50:00,
2013-10-02 21:54:00,70.1,68.3,29.84,SE,130,1.0,1.0,94,0.00,,CLR,0.00,0.00,VWS V14.01,2013-10-03 02:54:00,
2013-10-02 21:55:00,69.9,68.1,29.84,ESE,108,0.0,2.0,94,0.00,,CLR,0.00,0.00,VWS V14.01,2013-10-03 02:55:00,
2013-10-02 21:59:00,70.0,68.2,29.84,SSE,151,0.0,0.0,94,0.00,,CLR,0.00,0.00,VWS V14.01,2013-10-03 02:59:00,
2013-10-02 22:00:00,69.8,68.0,29.84,SSE,153,0.0,3.0,94,0.00,,CLR,0.00,0.00,VWS V14.01,2013-10-03 03:00:00,
2013-10-02 22:04:00,69.9,68.1,29.84,ESE,109,0.0,1.0,94,0.00,,CLR,0.00,0.00,VWS V14.01,2013-10-03 03:04:00,
2013-10-02 22:05:00,69.7,68.2,29.84,ESE,112,1.0,2.0,95,0.00,,CLR,0.00,0.00,VWS V14.01,2013-10-03 03:05:00,
2013-10-02 22:09:00,69.8,68.0,29.84,SSE,153,1.0,1.0,94,0.00,,CLR,0.00,0.00,VWS V14.01,2013-10-03 03:09:00,
2013-10-02 22:10:00,69.6,68.1,29.84,ESE,113,0.0,3.0,95,0.00,,CLR,0.00,0.00,VWS V14.01,2013-10-03 03:10:00,
2013-10-02 22:14:00,69.7,68.2,29.84,ESE,123,0.0,1.0,95,0.00,,CLR,0.00,0.00,VWS V14.01,2013-10-03 03:14:00,
2013-10-02 22:15:00,69.5,68.0,29.84,SE,124,1.0,5.0,95,0.00,,CLR,0.00,0.00,VWS V14.01,2013-10-03 03:15:00,
2013-10-02 22:19:00,69.6,68.1,29.84,ESE,122,0.0,3.0,95,0.00,,CLR,0.00,0.00,VWS V14.01,2013-10-03 03:19:00,
2013-10-02 22:20:00,69.5,68.0,29.84,ESE,115,0.0,3.0,95,0.00,,CLR,0.00,0.00,VWS V14.01,2013-10-03 03:20:00,
2013-10-02 22:24:00,69.5,68.0,29.84,ESE,115,0.0,3.0,95,0.00,,CLR,0.00,0.00,VWS V14.01,2013-10-03 03:24:00,
2013-10-02 22:25:00,69.4,67.9,29.84,SSE,150,0.0,3.0,95,0.00,,CLR,0.00,0.00,VWS V14.01,2013-10-03 03:25:00,
2013-10-02 22:29:00,69.4,67.9,29.84,ESE,115,0.0,1.0,95,0.00,,CLR,0.00,0.00,VWS V14.01,2013-10-03 03:29:00,
2013-10-02 22:30:00,69.3,67.8,29.84,ESE,110,0.0,2.0,95,0.00,,CLR,0.00,0.00,VWS V14.01,2013-10-03 03:30:00,
2013-10-02 22:34:00,69.3,67.8,29.84,SSE,150,0.0,0.0,95,0.00,,CLR,0.00,0.00,VWS V14.01,2013-10-03 03:34:00,
2013-10-02 22:35:00,69.2,67.7,29.84,SE,135,1.0,3.0,95,0.00,,CLR,0.00,0.00,VWS V14.01,2013-10-03 03:35:00,
2013-10-02 22:39:00,69.2,67.7,29.84,ESE,107,1.0,2.0,95,0.00,,CLR,0.00,0.00,VWS V14.01,2013-10-03 03:39:00,
2013-10-02 22:40:00,69.1,67.9,29.84,SSE,165,0.0,4.0,96,0.00,,CLR,0.00,0.00,VWS V14.01,2013-10-03 03:40:00,
2013-10-02 22:44:00,69.1,67.6,29.84,ESE,117,0.0,3.0,95,0.00,,CLR,0.00,0.00,VWS V14.01,2013-10-03 03:44:00,
2013-10-02 22:45:00,69.0,67.8,29.84,ESE,117,0.0,6.0,96,0.00,,CLR,0.00,0.00,VWS V14.01,2013-10-03 03:45:00,
2013-10-02 22:49:00,69.1,67.9,29.84,East,98,3.0,3.0,96,0.00,,CLR,0.00,0.00,VWS V14.01,2013-10-03 03:49:00,
2013-10-02 22:50:00,69.0,67.8,29.84,ESE,117,0.0,2.0,96,0.00,,CLR,0.00,0.00,VWS V14.01,2013-10-03 03:50:00,
2013-10-02 22:54:00,69.0,67.8,29.84,ESE,117,0.0,0.0,96,0.00,,CLR,0.00,0.00,VWS V14.01,2013-10-03 03:54:00,
2013-10-02 22:55:00,68.9,67.7,29.84,SE,129,2.0,2.0,96,0.00,,CLR,0.00,0.00,VWS V14.01,2013-10-03 03:55:00,
2013-10-02 22:59:00,68.9,67.7,29.84,ESE,117,0.0,0.0,96,0.00,,CLR,0.00,0.00,VWS V14.01,2013-10-03 03:59:00,
2013-10-02 23:00:00,68.9,67.7,29.83,South,173,0.0,3.0,96,0.00,,CLR,0.00,0.00,VWS V14.01,2013-10-03 04:00:00,
2013-10-02 23:01:00,68.9,67.7,29.84,ESE,117,0.0,0.0,96,0.00,,CLR,0.00,0.00,VWS V14.01,2013-10-03 04:01:00,
2013-10-02 23:02:00,68.9,67.7,29.84,ESE,117,0.0,0.0,96,0.00,,CLR,0.00,0.00,VWS V14.01,2013-10-03 04:02:00,
2013-10-02 23:03:00,68.9,67.7,29.84,SE,129,2.0,2.0,96,0.00,,CLR,0.00,0.00,VWS V14.01,2013-10-03 04:03:00,
2013-10-02 23:04:00,68.9,67.7,29.84,ESE,114,0.0,3.0,96,0.00,,CLR,0.00,0.00,VWS V14.01,2013-10-03 04:04:00,
2013-10-02 23:05:00,68.8,67.6,29.83,SE,140,1.0,5.0,96,0.00,,CLR,0.00,0.00,VWS V14.01,2013-10-03 04:05:00,
2013-10-02 23:09:00,68.8,67.6,29.83,ESE,114,0.0,5.0,96,0.00,,CLR,0.00,0.00,VWS V14.01,2013-10-03 04:09:00,
2013-10-02 23:10:00,68.8,67.6,29.83,South,182,0.0,2.0,96,0.00,,CLR,0.00,0.00,VWS V14.01,2013-10-03 04:10:00,
2013-10-02 23:12:00,68.8,67.6,29.83,ESE,119,1.0,5.0,96,0.00,,CLR,0.00,0.00,VWS V14.01,2013-10-03 04:12:00,
2013-10-02 23:15:00,68.7,67.5,29.83,ESE,110,0.0,2.0,96,0.00,,CLR,0.00,0.00,VWS V14.01,2013-10-03 04:15:00,
2013-10-02 23:18:00,68.8,67.6,29.83,ESE,123,0.0,2.0,96,0.00,,CLR,0.00,0.00,VWS V14.01,2013-10-03 04:18:00,
2013-10-02 23:19:00,68.8,67.6,29.83,South,174,0.0,0.0,96,0.00,,CLR,0.00,0.00,VWS V14.01,2013-10-03 04:19:00,
2013-10-02 23:20:00,68.7,67.5,29.83,ESE,110,0.0,1.0,96,0.00,,CLR,0.00,0.00,VWS V14.01,2013-10-03 04:20:00,
2013-10-02 23:24:00,68.7,67.5,29.83,ESE,110,0.0,1.0,96,0.00,,CLR,0.00,0.00,VWS V14.01,2013-10-03 04:24:00,
2013-10-02 23:25:00,68.6,67.4,29.83,East,98,0.0,2.0,96,0.00,,CLR,0.00,0.00,VWS V14.01,2013-10-03 04:25:00,
2013-10-02 23:29:00,68.7,67.5,29.83,ESE,110,0.0,0.0,96,0.00,,CLR,0.00,0.00,VWS V14.01,2013-10-03 04:29:00,
2013-10-02 23:30:00,68.6,67.4,29.83,East,94,5.0,5.0,96,0.00,,CLR,0.00,0.00,VWS V14.01,2013-10-03 04:30:00,
2013-10-02 23:34:00,68.6,67.4,29.83,East,99,0.0,0.0,96,0.00,,CLR,0.00,0.00,VWS V14.01,2013-10-03 04:34:00,
2013-10-02 23:35:00,68.6,67.4,29.83,SE,138,1.0,5.0,96,0.00,,CLR,0.00,0.00,VWS V14.01,2013-10-03 04:35:00,
2013-10-02 23:39:00,68.6,67.4,29.83,SE,142,0.0,5.0,96,0.00,,CLR,0.00,0.00,VWS V14.01,2013-10-03 04:39:00,
2013-10-02 23:40:00,68.6,67.4,29.83,NE,38,2.0,4.0,96,0.00,,CLR,0.00,0.00,VWS V14.01,2013-10-03 04:40:00,
2013-10-02 23:44:00,68.6,67.4,29.83,ESE,112,3.0,4.0,96,0.00,,CLR,0.00,0.00,VWS V14.01,2013-10-03 04:44:00,
2013-10-02 23:45:00,68.6,67.4,29.83,ESE,111,1.0,4.0,96,0.00,,CLR,0.00,0.00,VWS V14.01,2013-10-03 04:45:00,
2013-10-02 23:49:00,68.6,67.4,29.83,NE,55,0.0,2.0,96,0.00,,CLR,0.00,0.00,VWS V14.01,2013-10-03 04:49:00,
2013-10-02 23:50:00,68.5,67.3,29.83,ESE,113,0.0,4.0,96,0.00,,CLR,0.00,0.00,VWS V14.01,2013-10-03 04:50:00,
2013-10-02 23:54:00,68.6,67.4,29.83,SSE,150,1.0,4.0,96,0.00,,CLR,0.00,0.00,VWS V14.01,2013-10-03 04:54:00,
2013-10-02 23:55:00,68.5,67.3,29.83,SSE,159,1.0,3.0,96,0.00,,CLR,0.00,0.00,VWS V14.01,2013-10-03 04:55:00,
2013-10-02 23:59:00,68.5,67.3,29.83,ESE,113,1.0,1.0,96,0.00,,CLR,0.00,0.00,VWS V14.01,2013-10-03 04:59:00,